createdAt,value
2022-12-31T00:02:14.689Z,0.52
2022-12-31T00:04:41.742Z,0.40
2022-12-31T00:07:08.749Z,0.68
2022-12-31T00:09:35.632Z,0.50
2022-12-31T00:12:02.682Z,0.60
2022-12-31T00:14:29.709Z,0.57
2022-12-31T00:16:56.770Z,0.75
2022-12-31T00:19:23.691Z,0.47
2022-12-31T00:21:50.750Z,0.50
2022-12-31T00:24:18.232Z,0.50
2022-12-31T00:26:45.315Z,0.40
2022-12-31T00:29:12.540Z,0.47
2022-12-31T00:31:39.578Z,0.40
2022-12-31T00:34:07.359Z,0.30
2022-12-31T00:36:37.191Z,0.40
2022-12-31T00:39:06.836Z,0.60
2022-12-31T00:41:34.427Z,0.40
2022-12-31T00:44:01.830Z,0.57
2022-12-31T00:46:28.802Z,0.30
2022-12-31T00:48:56.260Z,0.30
2022-12-31T00:51:24.658Z,0.30
2022-12-31T00:53:51.617Z,0.15
2022-12-31T00:56:21.987Z,0.35
2022-12-31T00:58:49.888Z,0.60
2022-12-31T01:01:24.195Z,0.40
2022-12-31T01:03:53.347Z,0.30
2022-12-31T01:06:20.900Z,0.30
2022-12-31T01:08:53.238Z,0.30
2022-12-31T01:11:24.531Z,0.30
2022-12-31T01:13:53.523Z,0.40
2022-12-31T01:16:28.213Z,0.43
2022-12-31T01:18:55.778Z,0.43
2022-12-31T01:21:23.121Z,0.55
2022-12-31T01:23:50.363Z,0.50
2022-12-31T01:26:18.965Z,0.50
2022-12-31T01:28:47.009Z,0.60
2022-12-31T01:31:16.771Z,0.60
2022-12-31T01:33:44.309Z,0.68
2022-12-31T01:36:25.316Z,0.40
2022-12-31T01:38:54.407Z,0.22
2022-12-31T01:41:24.743Z,0.40
2022-12-31T01:43:56.335Z,0.22
2022-12-31T01:46:44.547Z,0.20
2022-12-31T01:49:20.727Z,0.30
2022-12-31T01:51:52.499Z,0.40
2022-12-31T01:54:22.529Z,0.20
2022-12-31T01:56:52.865Z,0.20
2022-12-31T01:59:22.322Z,0.30
2022-12-31T02:01:55.773Z,0.30
2022-12-31T02:04:25.140Z,0.30
2022-12-31T02:07:01.802Z,0.20
2022-12-31T02:09:30.653Z,0.20
2022-12-31T02:11:57.726Z,0.20
2022-12-31T02:14:30.088Z,0.28
2022-12-31T02:17:05.723Z,0.32
2022-12-31T02:19:32.788Z,0.25
2022-12-31T02:22:37.608Z,0.30
2022-12-31T02:25:29.663Z,0.30
2022-12-31T02:28:05.577Z,0.30
2022-12-31T02:30:34.828Z,0.35
2022-12-31T02:33:07.502Z,0.20
2022-12-31T02:35:54.737Z,0.20
2022-12-31T02:38:24.011Z,0.30
2022-12-31T02:40:53.321Z,0.30
2022-12-31T02:43:20.551Z,0.30
2022-12-31T02:46:10.144Z,0.20
2022-12-31T02:48:56.011Z,0.40
2022-12-31T02:51:44.961Z,0.20
2022-12-31T02:54:44.271Z,0.20
2022-12-31T02:57:40.326Z,0.20
2022-12-31T03:00:32.024Z,0.22
2022-12-31T03:03:00.990Z,0.20
2022-12-31T03:05:31.185Z,0.20
2022-12-31T03:07:58.357Z,0.13
2022-12-31T03:10:25.779Z,0.30
2022-12-31T03:12:52.899Z,0.20
2022-12-31T03:15:21.809Z,0.20
2022-12-31T03:17:59.477Z,0.20
2022-12-31T03:20:52.063Z,0.28
2022-12-31T03:23:26.353Z,0.10
2022-12-31T03:25:55.029Z,0.20
2022-12-31T03:28:26.164Z,0.20
2022-12-31T03:30:56.172Z,0.15
2022-12-31T03:33:24.095Z,0.20
2022-12-31T03:35:52.033Z,0.20
2022-12-31T03:38:19.891Z,0.10
2022-12-31T03:40:49.395Z,0.30
2022-12-31T03:43:17.151Z,0.10
2022-12-31T03:45:44.268Z,0.20
2022-12-31T03:48:11.314Z,0.20
2022-12-31T03:50:38.362Z,0.20
2022-12-31T03:53:05.878Z,0.10
2022-12-31T03:55:33.179Z,0.20
2022-12-31T03:58:00.164Z,0.15
2022-12-31T04:00:27.683Z,0.20
2022-12-31T04:02:54.967Z,0.10
2022-12-31T04:05:22.471Z,0.15
2022-12-31T04:07:49.519Z,0.20
2022-12-31T04:10:18.492Z,0.20
2022-12-31T04:12:45.957Z,0.17
2022-12-31T04:15:19.738Z,0.20
2022-12-31T04:17:47.791Z,0.20
2022-12-31T04:20:15.929Z,0.13
2022-12-31T04:22:44.162Z,0.20
2022-12-31T04:25:11.872Z,0.20
2022-12-31T04:27:40.862Z,0.20
2022-12-31T04:30:09.725Z,0.10
2022-12-31T04:32:36.695Z,0.28
2022-12-31T04:35:03.902Z,0.20
2022-12-31T04:37:30.838Z,0.20
2022-12-31T04:40:05.097Z,0.47
2022-12-31T04:42:32.330Z,0.43
2022-12-31T04:44:59.319Z,0.40
2022-12-31T04:47:26.268Z,0.38
2022-12-31T04:49:53.230Z,0.20
2022-12-31T04:52:20.125Z,0.30
2022-12-31T04:54:47.081Z,0.30
2022-12-31T04:57:14.067Z,0.20
2022-12-31T04:59:41.065Z,0.30
2022-12-31T05:02:08.256Z,0.20
2022-12-31T05:04:35.350Z,0.22
2022-12-31T05:07:02.336Z,0.17
2022-12-31T05:09:29.841Z,0.20
2022-12-31T05:11:56.941Z,0.17
2022-12-31T05:14:23.883Z,0.30
2022-12-31T05:16:50.889Z,0.40
2022-12-31T05:19:18.146Z,0.60
2022-12-31T05:22:05.094Z,0.38
2022-12-31T05:24:32.357Z,0.20
2022-12-31T05:26:59.324Z,0.20
2022-12-31T05:29:26.307Z,0.30
2022-12-31T05:31:53.274Z,0.28
2022-12-31T05:34:20.385Z,0.20
2022-12-31T05:36:47.342Z,0.30
2022-12-31T05:39:14.256Z,0.20
2022-12-31T05:41:41.251Z,0.10
2022-12-31T05:44:08.313Z,0.20
2022-12-31T05:46:35.217Z,0.30
2022-12-31T05:49:02.175Z,0.20
2022-12-31T05:51:29.110Z,0.10
2022-12-31T05:53:56.059Z,0.30
2022-12-31T05:56:23.104Z,0.20
2022-12-31T05:58:50.044Z,0.20
2022-12-31T06:01:17.039Z,0.20
2022-12-31T06:03:44.043Z,0.10
2022-12-31T06:06:11.256Z,0.20
2022-12-31T06:08:38.420Z,0.10
2022-12-31T06:11:05.569Z,0.52
2022-12-31T06:13:32.527Z,0.10
2022-12-31T06:16:06.098Z,0.22
2022-12-31T06:18:33.040Z,0.20
2022-12-31T06:21:00.150Z,0.10
2022-12-31T06:23:27.439Z,0.20
2022-12-31T06:25:54.419Z,0.20
2022-12-31T06:28:21.472Z,0.17
2022-12-31T06:30:48.804Z,0.20
2022-12-31T06:33:15.804Z,0.30
2022-12-31T06:35:42.772Z,0.20
2022-12-31T06:38:09.746Z,0.20
2022-12-31T06:40:37.911Z,0.20
2022-12-31T06:43:05.976Z,0.35
2022-12-31T06:45:32.926Z,0.28
2022-12-31T06:48:00.050Z,0.40
2022-12-31T06:50:27.159Z,0.25
2022-12-31T06:52:54.117Z,0.30
2022-12-31T06:55:21.418Z,0.40
2022-12-31T06:57:48.773Z,0.30
2022-12-31T07:00:16.468Z,0.70
2022-12-31T07:03:22.814Z,0.77
2022-12-31T07:05:52.497Z,0.50
2022-12-31T07:08:22.168Z,0.45
2022-12-31T07:11:08.002Z,0.40
2022-12-31T07:13:43.943Z,0.30
2022-12-31T07:16:29.200Z,0.52
2022-12-31T07:19:30.113Z,0.60
2022-12-31T07:21:59.061Z,0.52
2022-12-31T07:24:26.785Z,0.25
2022-12-31T07:27:26.009Z,0.40
2022-12-31T07:30:06.629Z,0.60
2022-12-31T07:32:58.444Z,0.60
2022-12-31T07:35:49.141Z,0.70
2022-12-31T07:38:48.531Z,0.50
2022-12-31T07:42:02.766Z,1.20
2022-12-31T07:44:54.157Z,0.47
2022-12-31T07:47:26.857Z,0.85
2022-12-31T07:49:55.425Z,0.60
2022-12-31T07:52:22.618Z,0.70
2022-12-31T07:54:49.740Z,1.15
2022-12-31T07:57:19.717Z,0.88
2022-12-31T08:00:08.096Z,0.60
2022-12-31T08:03:01.999Z,0.57
2022-12-31T08:06:11.094Z,0.50
2022-12-31T08:08:56.719Z,0.70
2022-12-31T08:11:31.358Z,0.75
2022-12-31T08:14:02.344Z,0.50
2022-12-31T08:16:30.175Z,0.50
2022-12-31T08:18:57.441Z,0.47
2022-12-31T08:21:43.002Z,0.40
2022-12-31T08:24:35.972Z,0.40
2022-12-31T08:27:33.664Z,0.50
2022-12-31T08:30:37.020Z,0.88
2022-12-31T08:33:12.926Z,0.85
2022-12-31T08:36:07.708Z,0.80
2022-12-31T08:38:46.708Z,0.80
2022-12-31T08:41:22.799Z,0.90
2022-12-31T08:43:55.783Z,0.70
2022-12-31T08:46:31.433Z,0.40
2022-12-31T08:48:58.729Z,0.50
2022-12-31T08:51:27.128Z,0.63
2022-12-31T08:53:55.430Z,0.63
2022-12-31T08:56:28.637Z,0.55
2022-12-31T08:59:07.958Z,0.70
2022-12-31T09:02:14.971Z,0.60
2022-12-31T09:05:00.424Z,0.52
2022-12-31T09:07:39.449Z,0.50
2022-12-31T09:10:29.191Z,0.55
2022-12-31T09:13:15.034Z,0.98
2022-12-31T09:15:58.849Z,0.60
2022-12-31T09:18:32.842Z,0.55
2022-12-31T09:21:00.319Z,0.50
2022-12-31T09:23:28.052Z,0.70
2022-12-31T09:26:07.067Z,0.60
2022-12-31T09:28:52.657Z,0.80
2022-12-31T09:31:31.131Z,0.70
2022-12-31T09:34:21.897Z,0.70
2022-12-31T09:36:53.421Z,0.55
2022-12-31T09:39:33.319Z,0.52
2022-12-31T09:42:29.786Z,0.60
2022-12-31T09:45:18.074Z,1.10
2022-12-31T09:47:57.160Z,0.68
2022-12-31T09:50:36.123Z,1.00
2022-12-31T09:53:32.351Z,0.60
2022-12-31T09:56:27.367Z,0.60
2022-12-31T09:59:01.440Z,0.70
2022-12-31T10:01:50.988Z,0.65
2022-12-31T10:04:45.476Z,0.63
2022-12-31T10:07:40.138Z,0.68
2022-12-31T10:10:09.938Z,0.60
2022-12-31T10:12:55.514Z,0.82
2022-12-31T10:15:42.309Z,0.50
2022-12-31T10:18:33.597Z,0.57
2022-12-31T10:21:47.827Z,0.80
2022-12-31T10:24:48.341Z,0.77
2022-12-31T10:27:41.680Z,1.02
2022-12-31T10:30:25.147Z,0.80
2022-12-31T10:33:07.769Z,1.23
2022-12-31T10:35:44.031Z,0.68
2022-12-31T10:38:29.867Z,0.50
2022-12-31T10:41:30.330Z,0.50
2022-12-31T10:44:22.483Z,0.70
2022-12-31T10:47:15.387Z,0.70
2022-12-31T10:50:02.648Z,0.60
2022-12-31T10:53:01.543Z,0.52
2022-12-31T10:56:04.043Z,0.80
2022-12-31T10:59:06.509Z,2.10
2022-12-31T11:02:00.473Z,0.60
2022-12-31T11:05:06.035Z,0.70
2022-12-31T11:07:55.680Z,0.70
2022-12-31T11:10:46.817Z,0.70
2022-12-31T11:13:46.335Z,0.60
2022-12-31T11:16:31.822Z,0.50
2022-12-31T11:19:21.455Z,0.60
2022-12-31T11:22:17.624Z,1.00
2022-12-31T11:25:01.091Z,0.60
2022-12-31T11:27:49.296Z,0.50
2022-12-31T11:30:28.001Z,0.63
2022-12-31T11:33:25.563Z,0.70
2022-12-31T11:36:23.789Z,0.60
2022-12-31T11:38:53.262Z,0.65
2022-12-31T11:41:28.778Z,0.60
2022-12-31T11:47:03.985Z,0.50
2022-12-31T11:50:03.118Z,0.55
2022-12-31T11:53:08.842Z,0.85
2022-12-31T11:55:57.164Z,0.85
2022-12-31T11:58:28.795Z,0.60
2022-12-31T12:01:16.642Z,0.70
2022-12-31T12:03:44.209Z,0.68
2022-12-31T12:06:17.093Z,0.50
2022-12-31T12:08:45.202Z,0.60
2022-12-31T12:11:23.913Z,0.52
2022-12-31T12:13:51.118Z,0.52
2022-12-31T12:16:21.446Z,0.77
2022-12-31T12:19:04.268Z,1.50
2022-12-31T12:21:31.954Z,0.93
2022-12-31T12:24:03.032Z,0.77
2022-12-31T12:26:39.942Z,0.68
2022-12-31T12:29:22.657Z,0.70
2022-12-31T12:31:59.939Z,0.70
2022-12-31T12:34:29.198Z,2.00
2022-12-31T12:36:56.224Z,2.17
2022-12-31T12:39:27.467Z,0.80
2022-12-31T12:42:15.955Z,0.68
2022-12-31T12:44:42.876Z,0.65
2022-12-31T12:47:16.185Z,0.60
2022-12-31T12:49:48.954Z,0.68
2022-12-31T12:52:37.920Z,0.77
2022-12-31T12:55:37.055Z,0.70
2022-12-31T12:58:19.397Z,0.70
2022-12-31T13:00:58.534Z,0.60
2022-12-31T13:04:32.600Z,0.70
2022-12-31T13:07:12.319Z,1.40
2022-12-31T13:09:39.222Z,1.00
2022-12-31T13:12:17.300Z,0.63
2022-12-31T13:14:50.314Z,0.70
2022-12-31T13:17:56.148Z,0.60
2022-12-31T13:20:43.300Z,0.68
2022-12-31T13:23:39.801Z,0.70
2022-12-31T13:26:36.263Z,0.77
2022-12-31T13:29:04.337Z,0.73
2022-12-31T13:31:35.507Z,0.85
2022-12-31T13:34:16.266Z,0.68
2022-12-31T13:36:46.835Z,0.60
2022-12-31T13:39:23.875Z,1.20
2022-12-31T13:41:56.201Z,1.30
2022-12-31T13:44:34.896Z,11.57
2022-12-31T13:47:13.916Z,13.35
2022-12-31T13:49:48.430Z,4.22
2022-12-31T13:52:34.556Z,1.73
2022-12-31T14:00:37.160Z,0.90
2022-12-31T14:03:24.882Z,0.80
2022-12-31T14:06:01.101Z,0.70
2022-12-31T14:08:28.397Z,0.55
2022-12-31T14:11:10.757Z,1.42
2022-12-31T14:13:59.853Z,1.52
2022-12-31T14:16:40.852Z,1.50
2022-12-31T14:19:33.313Z,0.73
2022-12-31T14:22:23.797Z,1.00
2022-12-31T14:24:52.257Z,1.00
2022-12-31T14:27:19.207Z,1.00
2022-12-31T14:29:53.633Z,0.90
2022-12-31T14:32:40.494Z,1.10
2022-12-31T14:35:22.721Z,1.10
2022-12-31T14:38:07.227Z,0.77
2022-12-31T14:40:56.468Z,1.60
2022-12-31T14:43:54.530Z,1.30
2022-12-31T14:46:30.561Z,1.90
2022-12-31T14:49:19.522Z,1.30
2022-12-31T14:51:47.027Z,1.60
2022-12-31T14:54:35.580Z,1.15
2022-12-31T14:57:25.057Z,1.45
2022-12-31T14:59:57.714Z,1.40
2022-12-31T15:02:31.407Z,1.20
2022-12-31T15:05:19.623Z,1.27
2022-12-31T15:08:04.857Z,1.40
2022-12-31T15:10:48.803Z,1.40
2022-12-31T15:13:40.531Z,1.07
2022-12-31T15:16:13.485Z,1.35
2022-12-31T15:18:55.765Z,1.27
2022-12-31T15:21:32.987Z,1.75
2022-12-31T15:24:01.077Z,1.30
2022-12-31T15:26:32.545Z,1.23
2022-12-31T15:29:19.098Z,1.10
2022-12-31T15:31:47.950Z,1.30
2022-12-31T15:34:29.617Z,1.80
2022-12-31T15:36:59.796Z,1.33
2022-12-31T15:39:43.281Z,1.40
2022-12-31T15:42:49.214Z,1.67
2022-12-31T15:45:33.432Z,2.38
2022-12-31T15:48:06.905Z,2.95
2022-12-31T15:50:39.127Z,3.53
2022-12-31T15:53:07.286Z,4.68
2022-12-31T15:55:48.525Z,4.63
2022-12-31T15:58:18.616Z,4.10
2022-12-31T16:01:09.985Z,2.80
2022-12-31T16:03:37.162Z,3.88
2022-12-31T16:06:11.475Z,2.42
2022-12-31T16:08:40.584Z,1.55
2022-12-31T16:11:09.031Z,1.63
2022-12-31T16:13:45.717Z,1.60
2022-12-31T16:16:23.796Z,1.40
2022-12-31T16:18:51.656Z,1.50
2022-12-31T16:21:36.225Z,1.30
2022-12-31T16:24:05.135Z,1.13
2022-12-31T16:26:38.936Z,1.33
2022-12-31T16:29:06.023Z,1.40
2022-12-31T16:31:33.112Z,2.15
2022-12-31T16:34:12.033Z,3.00
2022-12-31T16:36:39.094Z,2.63
2022-12-31T16:39:23.956Z,2.85
2022-12-31T16:41:52.465Z,4.32
2022-12-31T16:44:27.824Z,4.60
2022-12-31T16:47:01.440Z,4.57
2022-12-31T16:49:31.678Z,2.80
2022-12-31T16:52:07.670Z,2.72
2022-12-31T16:54:37.348Z,2.75
2022-12-31T16:57:06.333Z,2.50
2022-12-31T16:59:43.897Z,3.17
2022-12-31T17:02:20.730Z,3.20
2022-12-31T17:04:55.743Z,2.70
2022-12-31T17:07:33.563Z,2.22
2022-12-31T17:10:06.784Z,1.63
2022-12-31T17:13:01.005Z,2.00
2022-12-31T17:15:40.345Z,1.88
2022-12-31T17:18:08.303Z,1.60
2022-12-31T17:20:36.692Z,1.77
2022-12-31T17:23:06.992Z,2.03
2022-12-31T17:25:37.136Z,1.85
2022-12-31T17:28:07.270Z,4.55
2022-12-31T17:30:35.042Z,4.70
2022-12-31T17:33:09.703Z,3.67
2022-12-31T17:35:43.072Z,2.30
2022-12-31T17:38:22.364Z,1.80
2022-12-31T17:40:54.746Z,2.38
2022-12-31T17:43:23.641Z,3.58
2022-12-31T17:45:52.811Z,4.78
2022-12-31T17:48:23.010Z,3.50
2022-12-31T17:51:01.074Z,2.47
2022-12-31T17:53:28.420Z,2.50
2022-12-31T17:56:00.526Z,2.10
2022-12-31T17:58:29.647Z,2.30
2022-12-31T18:00:57.667Z,2.42
2022-12-31T18:03:24.886Z,2.42
2022-12-31T18:05:51.930Z,2.40
2022-12-31T18:08:18.887Z,3.35
2022-12-31T18:10:46.148Z,2.83
2022-12-31T18:13:22.452Z,3.15
2022-12-31T18:15:50.180Z,3.03
2022-12-31T18:18:33.696Z,2.50
2022-12-31T18:21:03.230Z,3.80
2022-12-31T18:23:41.415Z,2.83
2022-12-31T18:26:17.258Z,2.38
2022-12-31T18:28:44.621Z,3.00
2022-12-31T18:31:22.146Z,2.20
2022-12-31T18:33:49.953Z,2.28
2022-12-31T18:36:19.650Z,2.65
2022-12-31T18:38:46.805Z,2.75
2022-12-31T18:41:28.644Z,2.63
2022-12-31T18:43:56.242Z,2.47
2022-12-31T18:46:24.685Z,2.17
2022-12-31T18:48:51.946Z,2.90
2022-12-31T18:51:25.116Z,2.75
2022-12-31T18:53:56.578Z,3.33
2022-12-31T18:56:25.343Z,3.00
2022-12-31T18:58:52.400Z,4.93
2022-12-31T19:01:33.205Z,4.63
2022-12-31T19:04:10.680Z,4.43
2022-12-31T19:06:37.612Z,4.63
2022-12-31T19:09:13.239Z,3.00
2022-12-31T19:11:53.386Z,4.30
2022-12-31T19:14:24.249Z,8.20
2022-12-31T19:16:53.288Z,4.55
2022-12-31T19:19:21.317Z,6.18
2022-12-31T19:21:48.609Z,2.40
2022-12-31T19:24:24.654Z,2.40
2022-12-31T19:26:51.636Z,3.78
2022-12-31T19:29:21.873Z,3.00
2022-12-31T19:31:49.224Z,2.63
2022-12-31T19:34:16.433Z,5.10
2022-12-31T19:36:44.309Z,3.83
2022-12-31T19:39:20.333Z,2.55
2022-12-31T19:41:53.045Z,1.80
2022-12-31T19:44:25.389Z,2.78
2022-12-31T19:46:52.361Z,3.00
2022-12-31T19:49:19.360Z,2.22
2022-12-31T19:51:46.433Z,1.55
2022-12-31T19:54:13.651Z,1.67
2022-12-31T19:56:40.983Z,1.58
2022-12-31T19:59:10.664Z,1.67
2022-12-31T20:01:38.229Z,2.30
2022-12-31T20:04:05.574Z,2.00
2022-12-31T20:06:32.748Z,1.83
2022-12-31T20:08:59.686Z,2.33
2022-12-31T20:11:26.805Z,1.95
2022-12-31T20:13:54.182Z,2.78
2022-12-31T20:16:23.966Z,3.00
2022-12-31T20:18:51.061Z,2.90
2022-12-31T20:21:25.182Z,4.15
2022-12-31T20:23:53.480Z,3.17
2022-12-31T20:26:22.282Z,3.92
2022-12-31T20:28:50.870Z,3.38
2022-12-31T20:31:21.259Z,15.35
2022-12-31T20:33:49.398Z,4.68
2022-12-31T20:36:17.523Z,2.80
2022-12-31T20:38:45.472Z,2.15
2022-12-31T20:41:17.801Z,4.13
2022-12-31T20:43:45.678Z,6.50
2022-12-31T20:46:21.603Z,4.78
2022-12-31T20:48:50.456Z,3.00
2022-12-31T20:51:18.775Z,2.88
2022-12-31T20:53:48.366Z,3.10
2022-12-31T20:56:15.745Z,2.78
2022-12-31T20:58:43.046Z,3.33
2022-12-31T21:01:11.850Z,3.67
2022-12-31T21:06:29.599Z,2.25
2022-12-31T21:08:59.060Z,1.73
2022-12-31T21:11:44.949Z,2.78
2022-12-31T21:14:11.921Z,3.53
2022-12-31T21:16:39.162Z,2.22
2022-12-31T21:19:06.422Z,2.00
2022-12-31T21:21:33.967Z,1.90
2022-12-31T21:24:01.323Z,2.33
2022-12-31T21:26:29.337Z,2.03
2022-12-31T21:28:56.565Z,2.20
2022-12-31T21:31:23.591Z,1.85
2022-12-31T21:33:51.629Z,2.00
2022-12-31T21:36:18.740Z,1.80
2022-12-31T21:38:45.889Z,2.40
2022-12-31T21:41:35.028Z,1.80
2022-12-31T21:44:02.701Z,1.70
2022-12-31T21:46:30.091Z,2.70
2022-12-31T21:48:59.098Z,2.10
2022-12-31T21:51:26.999Z,1.83
2022-12-31T21:53:54.379Z,1.90
2022-12-31T21:56:22.661Z,1.98
2022-12-31T21:59:17.433Z,1.92
2022-12-31T22:02:03.000Z,2.00
2022-12-31T22:07:17.477Z,2.08
2022-12-31T22:09:44.484Z,1.52
2022-12-31T22:12:11.422Z,1.65
2022-12-31T22:14:38.365Z,1.58
2022-12-31T22:17:05.420Z,1.30
2022-12-31T22:19:43.514Z,1.67
2022-12-31T22:22:19.480Z,1.50
2022-12-31T22:24:46.441Z,1.73
2022-12-31T22:27:29.142Z,1.50
2022-12-31T22:29:56.832Z,1.70
2022-12-31T22:32:23.776Z,1.30
2022-12-31T22:34:50.749Z,1.52
2022-12-31T22:37:54.526Z,1.83
2022-12-31T22:40:05.203Z,1.42
2022-12-31T22:42:32.157Z,1.40
2022-12-31T22:44:59.131Z,1.35
2022-12-31T22:47:26.344Z,1.38
2022-12-31T22:49:53.350Z,1.38
2022-12-31T22:52:20.344Z,1.90
2022-12-31T22:54:47.364Z,1.58
2022-12-31T22:57:19.847Z,2.00
2022-12-31T22:59:47.560Z,2.13
2022-12-31T23:02:14.648Z,6.22
2022-12-31T23:04:41.578Z,16.38
2022-12-31T23:07:08.643Z,18.23
2022-12-31T23:09:54.316Z,15.00
2022-12-31T23:12:21.366Z,8.07
2022-12-31T23:15:06.860Z,10.68
2022-12-31T23:17:52.253Z,9.60
2022-12-31T23:20:41.701Z,4.43
2022-12-31T23:23:13.943Z,5.93
2022-12-31T23:25:44.016Z,10.00
2022-12-31T23:28:14.042Z,7.15
2022-12-31T23:30:42.230Z,6.82
2022-12-31T23:33:17.339Z,5.57
2022-12-31T23:35:44.411Z,7.57
2022-12-31T23:38:12.172Z,9.00
2022-12-31T23:40:39.303Z,9.10
2022-12-31T23:43:08.060Z,8.90
2022-12-31T23:45:36.212Z,7.35
2022-12-31T23:48:03.360Z,6.13
2022-12-31T23:50:30.360Z,5.78
2022-12-31T23:52:57.315Z,4.88
2022-12-31T23:55:24.262Z,4.28
2022-12-31T23:57:51.176Z,3.05
